createdAt,value
2019-02-27T00:04:02.425Z,3.00
2019-02-27T00:07:14.103Z,3.00
2019-02-27T00:09:48.551Z,5.00
2019-02-27T00:12:40.555Z,3.00
2019-02-27T00:15:37.757Z,4.20
2019-02-27T00:18:30.997Z,5.00
2019-02-27T00:24:12.155Z,3.00
2019-02-27T00:26:44.690Z,2.20
2019-02-27T00:29:16.646Z,3.00
2019-02-27T00:32:07.808Z,4.00
2019-02-27T00:34:58.357Z,5.00
2019-02-27T00:37:51.962Z,5.00
2019-02-27T00:40:24.887Z,5.00
2019-02-27T00:43:38.462Z,5.80
2019-02-27T00:46:13.380Z,3.80
2019-02-27T00:49:03.682Z,5.00
2019-02-27T00:51:50.482Z,3.67
2019-02-27T00:58:06.115Z,4.20
2019-02-27T01:00:45.260Z,5.00
2019-02-27T01:03:17.508Z,3.00
2019-02-27T01:05:52.097Z,5.00
2019-02-27T01:08:39.242Z,5.00
2019-02-27T01:11:02.610Z,4.00
2019-02-27T01:16:56.649Z,5.00
2019-02-27T01:19:29.495Z,4.33
2019-02-27T01:22:02.132Z,6.50
2019-02-27T01:24:53.103Z,5.00
2019-02-27T01:27:25.364Z,5.00
2019-02-27T01:29:57.744Z,4.00
2019-02-27T01:32:48.360Z,4.33
2019-02-27T01:35:21.951Z,7.00
2019-02-27T01:37:52.985Z,7.00
2019-02-27T01:40:43.654Z,3.00
2019-02-27T01:43:15.993Z,5.00
2019-02-27T01:45:46.798Z,7.00
2019-02-27T01:48:42.733Z,3.40
2019-02-27T01:51:16.156Z,6.00
2019-02-27T01:54:23.821Z,6.00
2019-02-27T01:57:05.489Z,5.00
2019-02-27T01:59:56.123Z,5.67
2019-02-27T02:02:29.219Z,5.00
2019-02-27T02:04:59.233Z,5.00
2019-02-27T02:07:49.907Z,6.33
2019-02-27T02:10:22.064Z,3.00
2019-02-27T02:13:17.033Z,5.00
2019-02-27T02:16:27.001Z,3.00
2019-02-27T02:19:37.226Z,3.00
2019-02-27T02:22:46.972Z,5.00
2019-02-27T02:25:45.454Z,7.00
2019-02-27T02:28:55.641Z,8.33
2019-02-27T02:32:05.506Z,7.00
2019-02-27T02:35:15.785Z,5.67
2019-02-27T02:38:26.169Z,8.00
2019-02-27T02:41:21.028Z,5.00
2019-02-27T02:44:32.772Z,9.00
2019-02-27T02:47:34.059Z,7.00
2019-02-27T02:50:33.941Z,7.33
2019-02-27T02:53:42.845Z,8.00
2019-02-27T02:56:52.146Z,8.67
2019-02-27T03:00:02.338Z,4.67
2019-02-27T03:03:17.910Z,10.00
2019-02-27T03:06:34.565Z,6.00
2019-02-27T03:09:55.278Z,6.00
2019-02-27T03:13:05.991Z,6.00
2019-02-27T03:19:33.212Z,7.50
2019-02-27T03:22:42.598Z,9.00
2019-02-27T03:25:53.087Z,8.67
2019-02-27T03:29:02.387Z,7.33
2019-02-27T03:32:12.662Z,5.00
2019-02-27T03:35:27.546Z,7.67
2019-02-27T03:38:34.493Z,9.25
2019-02-27T03:41:28.930Z,8.00
2019-02-27T03:44:27.844Z,7.33
2019-02-27T03:47:22.802Z,7.00
2019-02-27T03:50:31.186Z,9.00
2019-02-27T03:53:43.352Z,9.33
2019-02-27T03:56:54.977Z,9.33
2019-02-27T04:00:04.293Z,9.00
2019-02-27T04:03:17.099Z,10.33
2019-02-27T04:06:24.479Z,9.33
2019-02-27T04:09:33.867Z,10.67
2019-02-27T04:12:23.572Z,9.00
2019-02-27T04:15:17.664Z,10.67
2019-02-27T04:18:03.584Z,9.33
2019-02-27T04:20:37.222Z,9.00
2019-02-27T04:26:15.106Z,7.33
2019-02-27T04:29:08.331Z,10.00
2019-02-27T04:31:40.285Z,8.00
2019-02-27T04:34:11.096Z,8.00
2019-02-27T04:37:02.325Z,10.00
2019-02-27T04:39:54.365Z,6.00
2019-02-27T04:42:26.522Z,6.67
2019-02-27T04:44:58.441Z,6.00
2019-02-27T04:47:31.569Z,8.00
2019-02-27T04:50:23.129Z,7.00
2019-02-27T04:52:57.738Z,8.00
2019-02-27T04:55:48.014Z,8.00
2019-02-27T04:58:42.823Z,10.33
2019-02-27T05:01:30.731Z,8.00
2019-02-27T05:04:04.570Z,6.67
2019-02-27T05:06:55.258Z,8.00
2019-02-27T05:09:45.596Z,8.67
2019-02-27T05:15:45.456Z,6.67
2019-02-27T05:18:36.141Z,8.00
2019-02-27T05:24:32.772Z,10.00
2019-02-27T05:27:03.591Z,10.67
2019-02-27T05:30:04.067Z,9.33
2019-02-27T05:33:01.816Z,12.00
2019-02-27T05:35:47.908Z,10.67
2019-02-27T05:44:10.993Z,10.00
2019-02-27T05:46:44.011Z,11.67
2019-02-27T05:49:16.324Z,9.33
2019-02-27T05:51:48.432Z,9.67
2019-02-27T05:54:20.058Z,10.00
2019-02-27T05:56:53.818Z,12.00
2019-02-27T05:59:29.407Z,8.00
2019-02-27T06:02:22.342Z,13.33
2019-02-27T06:05:16.946Z,12.00
2019-02-27T06:11:36.936Z,12.67
2019-02-27T06:14:26.889Z,11.00
2019-02-27T06:16:58.207Z,12.67
2019-02-27T06:19:33.564Z,10.00
2019-02-27T06:22:10.783Z,11.33
2019-02-27T06:24:45.581Z,8.00
2019-02-27T06:27:21.506Z,8.00
2019-02-27T06:29:56.587Z,10.00
2019-02-27T06:32:44.624Z,8.67
2019-02-27T06:35:19.451Z,12.00
2019-02-27T06:37:58.297Z,10.67
2019-02-27T06:40:32.826Z,8.67
2019-02-27T06:43:44.486Z,10.00
2019-02-27T06:46:27.302Z,8.67
2019-02-27T06:49:29.186Z,12.67
2019-02-27T06:52:14.154Z,14.67
2019-02-27T06:55:04.244Z,10.00
2019-02-27T06:57:54.642Z,10.00
2019-02-27T07:00:46.354Z,13.33
2019-02-27T07:06:21.663Z,13.33
2019-02-27T07:08:55.105Z,13.00
2019-02-27T07:11:33.603Z,11.00
2019-02-27T07:14:05.267Z,11.67
2019-02-27T07:16:37.872Z,11.67
2019-02-27T07:19:08.205Z,11.67
2019-02-27T07:22:17.861Z,9.67
2019-02-27T07:25:08.608Z,9.67
2019-02-27T07:30:59.783Z,13.00
2019-02-27T07:33:34.091Z,13.00
2019-02-27T07:38:57.537Z,11.00
2019-02-27T07:41:30.113Z,9.67
2019-02-27T07:44:57.689Z,11.00
2019-02-27T07:47:15.412Z,10.33
2019-02-27T07:50:23.447Z,11.00
2019-02-27T07:52:54.187Z,9.00
2019-02-27T07:56:02.601Z,11.67
2019-02-27T07:59:59.437Z,10.33
2019-02-27T08:02:05.570Z,13.00
2019-02-27T08:04:55.337Z,12.33
2019-02-27T08:07:48.661Z,9.00
2019-02-27T08:10:36.760Z,14.00
2019-02-27T08:13:29.588Z,11.00
2019-02-27T08:15:56.389Z,14.67
2019-02-27T08:18:46.131Z,9.33
2019-02-27T08:21:17.945Z,10.67
2019-02-27T08:23:56.394Z,12.67
2019-02-27T08:26:26.902Z,14.00
2019-02-27T08:29:37.681Z,15.33
2019-02-27T08:32:28.115Z,11.67
2019-02-27T08:38:38.227Z,11.00
2019-02-27T08:41:31.490Z,12.00
2019-02-27T08:44:07.882Z,12.00
2019-02-27T08:46:57.689Z,15.33
2019-02-27T08:52:57.814Z,18.67
2019-02-27T08:55:30.876Z,17.00
2019-02-27T08:58:26.759Z,14.67
2019-02-27T09:07:22.091Z,13.67
2019-02-27T09:10:30.904Z,12.67
2019-02-27T09:13:05.815Z,12.33
2019-02-27T09:15:59.376Z,15.67
2019-02-27T09:19:01.173Z,14.33
2019-02-27T09:27:20.094Z,15.00
2019-02-27T09:30:28.485Z,17.33
2019-02-27T09:33:04.912Z,14.00
2019-02-27T09:35:47.162Z,15.33
2019-02-27T09:38:24.399Z,16.00
2019-02-27T09:43:52.433Z,16.00
2019-02-27T09:46:49.866Z,14.33
2019-02-27T09:49:25.095Z,14.00
2019-02-27T09:52:34.126Z,15.00
2019-02-27T09:55:25.265Z,15.00
2019-02-27T10:01:24.219Z,15.33
2019-02-27T10:04:47.768Z,10.00
2019-02-27T10:07:23.091Z,13.67
2019-02-27T10:10:33.439Z,12.00
2019-02-27T10:13:04.111Z,10.00
2019-02-27T10:16:03.688Z,11.67
2019-02-27T10:18:39.930Z,10.33
2019-02-27T10:21:17.171Z,13.33
2019-02-27T10:26:53.544Z,14.00
2019-02-27T10:29:24.579Z,14.00
2019-02-27T10:32:00.716Z,17.67
2019-02-27T10:34:31.511Z,16.67
2019-02-27T10:41:02.953Z,15.67
2019-02-27T10:50:04.048Z,17.67
2019-02-27T10:52:56.484Z,15.00
2019-02-27T10:55:57.376Z,14.33
2019-02-27T10:59:09.056Z,16.67
2019-02-27T11:04:43.485Z,15.50
2019-02-27T11:13:51.409Z,17.00
2019-02-27T11:17:03.392Z,17.25
2019-02-27T11:22:47.062Z,15.67
2019-02-27T11:25:37.575Z,15.00
2019-02-27T11:28:08.933Z,18.00
2019-02-27T11:30:59.791Z,18.50
2019-02-27T11:36:29.756Z,16.33
2019-02-27T11:39:19.362Z,16.00
2019-02-27T11:42:10.584Z,19.00
2019-02-27T11:45:14.228Z,20.00
2019-02-27T11:50:43.631Z,18.25
2019-02-27T11:53:36.005Z,19.00
2019-02-27T11:59:57.791Z,17.00
2019-02-27T12:02:37.843Z,19.75
2019-02-27T12:08:48.930Z,15.33
2019-02-27T12:11:40.657Z,15.67
2019-02-27T12:14:25.692Z,15.00
2019-02-27T12:16:57.799Z,16.25
2019-02-27T12:23:07.384Z,17.75
2019-02-27T12:26:06.380Z,14.00
2019-02-27T12:28:59.516Z,16.75
2019-02-27T12:32:06.637Z,15.67
2019-02-27T12:35:13.193Z,15.33
2019-02-27T12:40:32.949Z,15.33
2019-02-27T12:46:34.803Z,14.33
2019-02-27T12:49:38.975Z,15.00
2019-02-27T12:52:48.076Z,12.67
2019-02-27T13:01:33.335Z,15.67
2019-02-27T13:04:19.925Z,15.67
2019-02-27T13:06:41.227Z,16.00
2019-02-27T13:15:26.375Z,15.67
2019-02-27T13:18:19.100Z,14.67
2019-02-27T13:21:12.288Z,16.33
2019-02-27T13:23:42.707Z,13.67
2019-02-27T13:26:34.708Z,14.00
2019-02-27T13:32:26.550Z,12.00
2019-02-27T13:34:59.105Z,12.67
2019-02-27T13:37:46.041Z,13.00
2019-02-27T13:43:58.260Z,13.67
2019-02-27T13:46:29.905Z,13.33
2019-02-27T13:49:00.397Z,15.67
2019-02-27T13:51:36.134Z,13.00
2019-02-27T13:54:06.790Z,11.00
2019-02-27T13:57:00.854Z,11.67
2019-02-27T13:59:46.526Z,11.67
2019-02-27T14:02:47.533Z,11.00
2019-02-27T14:08:57.580Z,9.33
2019-02-27T14:11:52.402Z,12.00
2019-02-27T14:14:26.336Z,10.00
2019-02-27T14:17:41.302Z,11.00
2019-02-27T14:20:11.797Z,10.00
2019-02-27T14:22:46.098Z,10.33
2019-02-27T14:25:28.474Z,11.00
2019-02-27T14:28:09.346Z,11.67
2019-02-27T14:31:00.766Z,8.67
2019-02-27T14:36:51.889Z,10.00
2019-02-27T14:40:03.762Z,11.00
2019-02-27T14:42:56.205Z,11.67
2019-02-27T14:45:47.138Z,10.00
2019-02-27T14:48:18.140Z,11.00
2019-02-27T14:50:52.640Z,8.67
2019-02-27T14:53:23.991Z,8.00
2019-02-27T14:56:00.201Z,10.00
2019-02-27T14:58:40.419Z,10.67
2019-02-27T15:01:11.831Z,12.00
2019-02-27T15:04:13.898Z,11.00
2019-02-27T15:06:51.449Z,11.00
2019-02-27T15:09:47.826Z,12.00
2019-02-27T15:12:16.184Z,12.67
2019-02-27T15:15:06.837Z,11.00
2019-02-27T15:18:16.204Z,11.00
2019-02-27T15:21:13.253Z,10.67
2019-02-27T15:23:50.755Z,10.00
2019-02-27T15:26:22.612Z,11.00
2019-02-27T15:28:57.365Z,12.67
2019-02-27T15:38:04.601Z,10.67
2019-02-27T15:40:57.074Z,10.33
2019-02-27T15:44:00.258Z,12.33
2019-02-27T15:47:01.393Z,11.00
2019-02-27T15:52:22.708Z,13.67
2019-02-27T15:58:11.397Z,11.00
2019-02-27T16:00:52.297Z,13.33
2019-02-27T16:03:38.991Z,12.00
2019-02-27T16:06:19.819Z,12.67
2019-02-27T16:09:11.940Z,10.00
2019-02-27T16:16:11.378Z,10.00
2019-02-27T16:18:44.006Z,10.33
2019-02-27T16:21:33.719Z,10.00
2019-02-27T16:24:44.148Z,11.67
2019-02-27T16:28:00.182Z,10.00
2019-02-27T16:30:32.757Z,9.00
2019-02-27T16:33:25.242Z,7.00
2019-02-27T16:36:00.457Z,7.67
2019-02-27T16:38:31.648Z,9.33
2019-02-27T16:41:27.953Z,10.33
2019-02-27T16:44:21.798Z,7.33
2019-02-27T16:47:11.851Z,8.33
2019-02-27T16:59:09.702Z,8.67
2019-02-27T17:02:00.908Z,8.33
2019-02-27T17:04:17.356Z,9.67
2019-02-27T17:06:49.135Z,9.67
2019-02-27T17:09:23.880Z,8.00
2019-02-27T17:11:56.097Z,9.67
2019-02-27T17:14:45.535Z,8.00
2019-02-27T17:17:18.862Z,7.33
2019-02-27T17:20:12.587Z,9.67
2019-02-27T17:23:15.009Z,11.00
2019-02-27T17:25:37.416Z,8.00
2019-02-27T17:28:08.264Z,10.00
2019-02-27T17:37:06.464Z,10.00
2019-02-27T17:43:01.119Z,8.33
2019-02-27T17:45:31.961Z,9.33
2019-02-27T17:53:57.964Z,8.67
2019-02-27T17:56:38.490Z,7.00
2019-02-27T17:59:31.680Z,8.33
2019-02-27T18:02:34.869Z,7.00
2019-02-27T18:05:35.486Z,6.33
2019-02-27T18:08:16.241Z,8.33
2019-02-27T18:11:15.614Z,7.00
2019-02-27T18:14:25.322Z,9.00
2019-02-27T18:17:18.124Z,9.33
2019-02-27T18:20:40.315Z,7.00
2019-02-27T18:38:37.302Z,7.00
2019-02-27T18:40:58.976Z,7.00
2019-02-27T18:43:50.235Z,6.33
2019-02-27T18:47:21.089Z,7.00
2019-02-27T18:50:32.138Z,6.00
2019-02-27T18:53:23.200Z,6.00
2019-02-27T18:55:57.820Z,7.00
2019-02-27T18:58:31.105Z,6.25
2019-02-27T19:07:07.677Z,6.00
2019-02-27T19:09:59.856Z,4.00
2019-02-27T19:16:10.137Z,6.00
2019-02-27T19:19:42.501Z,6.00
2019-02-27T19:25:44.395Z,4.00
2019-02-27T19:28:59.355Z,7.33
2019-02-27T19:31:30.046Z,6.00
2019-02-27T19:34:07.348Z,6.00
2019-02-27T19:43:05.534Z,6.00
2019-02-27T19:45:36.721Z,6.00
2019-02-27T19:54:20.665Z,6.00
2019-02-27T19:57:24.942Z,6.00
2019-02-27T20:00:14.443Z,8.00
2019-02-27T20:03:04.671Z,8.33
2019-02-27T20:05:56.155Z,8.33
2019-02-27T20:08:49.232Z,9.67
2019-02-27T20:11:58.738Z,8.67
2019-02-27T20:17:54.141Z,9.67
2019-02-27T20:20:45.362Z,11.00
2019-02-27T20:23:48.951Z,9.00
2019-02-27T20:26:44.587Z,7.33
2019-02-27T20:29:46.765Z,7.67
2019-02-27T20:32:18.353Z,8.67
2019-02-27T20:34:52.150Z,7.67
2019-02-27T20:41:00.678Z,9.00
2019-02-27T20:52:53.268Z,8.00
2019-02-27T21:01:49.814Z,8.00
2019-02-27T21:04:22.063Z,10.67
2019-02-27T21:06:56.428Z,8.00
2019-02-27T21:09:36.398Z,10.00
2019-02-27T21:17:50.661Z,10.67
2019-02-27T21:20:23.782Z,9.67
2019-02-27T21:23:13.194Z,9.67
2019-02-27T21:26:22.981Z,11.33
2019-02-27T21:29:14.922Z,9.00
2019-02-27T21:32:04.529Z,11.00
2019-02-27T21:35:14.193Z,9.67
2019-02-27T21:37:46.201Z,8.00
2019-02-27T21:40:18.819Z,8.00
2019-02-27T21:43:08.655Z,10.33
2019-02-27T21:45:39.881Z,8.67
2019-02-27T21:51:19.260Z,8.00
2019-02-27T21:54:00.313Z,9.00
2019-02-27T21:57:12.103Z,10.00
2019-02-27T21:59:55.288Z,11.00
2019-02-27T22:06:01.354Z,11.00
2019-02-27T22:08:50.892Z,11.67
2019-02-27T22:14:51.577Z,10.00
2019-02-27T22:20:36.941Z,10.00
2019-02-27T22:23:45.991Z,11.67
2019-02-27T22:30:05.558Z,11.67
2019-02-27T22:32:55.642Z,9.67
2019-02-27T22:35:45.156Z,10.00
2019-02-27T22:38:53.980Z,12.33
2019-02-27T22:41:45.044Z,13.00
2019-02-27T22:47:18.461Z,12.67
2019-02-27T22:50:10.145Z,11.67
2019-02-27T22:53:04.472Z,12.67
2019-02-27T22:55:46.774Z,9.33
2019-02-27T23:17:13.844Z,12.00
2019-02-27T23:20:20.912Z,14.00
2019-02-27T23:26:41.443Z,17.67
2019-02-27T23:29:50.413Z,16.67
2019-02-27T23:32:51.035Z,14.67
2019-02-27T23:38:34.894Z,13.00
2019-02-27T23:41:39.634Z,15.00
2019-02-27T23:44:39.358Z,13.00
2019-02-27T23:53:58.638Z,9.00
2019-02-27T23:56:36.394Z,11.00
